createdAt,value
2023-04-10T00:00:04.131Z,27.34
2023-04-10T00:01:04.125Z,27.35
2023-04-10T00:02:04.245Z,27.31
2023-04-10T00:03:04.653Z,27.32
2023-04-10T00:04:05.169Z,27.31
2023-04-10T00:05:04.404Z,27.36
2023-04-10T00:06:04.455Z,27.38
2023-04-10T00:07:04.497Z,27.34
2023-04-10T00:08:04.500Z,27.28
2023-04-10T00:09:04.566Z,27.34
2023-04-10T00:10:04.642Z,27.37
2023-04-10T00:11:04.723Z,27.34
2023-04-10T00:12:04.818Z,27.34
2023-04-10T00:13:04.804Z,27.37
2023-04-10T00:14:04.925Z,27.35
2023-04-10T00:15:04.952Z,27.34
2023-04-10T00:16:05.080Z,27.35
2023-04-10T00:17:05.103Z,27.34
2023-04-10T00:18:05.520Z,27.32
2023-04-10T00:19:05.194Z,27.35
2023-04-10T00:20:05.263Z,27.31
2023-04-10T00:21:05.383Z,27.35
2023-04-10T00:22:05.395Z,27.35
2023-04-10T00:23:05.485Z,27.36
2023-04-10T00:24:05.548Z,27.33
2023-04-10T00:25:05.527Z,27.35
2023-04-10T00:26:05.660Z,27.35
2023-04-10T00:27:05.726Z,27.38
2023-04-10T00:28:05.759Z,27.34
2023-04-10T00:29:05.803Z,27.39
2023-04-10T00:30:05.875Z,27.38
2023-04-10T00:31:06.070Z,27.36
2023-04-10T00:32:06.024Z,27.39
2023-04-10T00:33:06.179Z,27.39
2023-04-10T00:34:06.120Z,27.39
2023-04-10T00:35:06.248Z,27.39
2023-04-10T00:36:06.295Z,27.39
2023-04-10T00:37:06.293Z,27.39
2023-04-10T00:38:06.486Z,27.39
2023-04-10T00:39:06.449Z,27.38
2023-04-10T00:40:06.522Z,27.38
2023-04-10T00:41:06.582Z,27.39
2023-04-10T00:42:06.644Z,27.43
2023-04-10T00:43:06.772Z,27.40
2023-04-10T00:44:06.754Z,27.40
2023-04-10T00:45:06.837Z,27.40
2023-04-10T00:46:06.892Z,27.38
2023-04-10T00:47:07.000Z,27.38
2023-04-10T00:48:06.983Z,27.39
2023-04-10T00:49:07.458Z,27.37
2023-04-10T00:50:07.115Z,27.40
2023-04-10T00:51:07.235Z,27.40
2023-04-10T00:52:07.324Z,27.36
2023-04-10T00:53:07.289Z,27.39
2023-04-10T00:54:07.367Z,27.43
2023-04-10T00:55:07.465Z,27.40
2023-04-10T00:56:07.489Z,27.44
2023-04-10T00:57:07.606Z,27.46
2023-04-10T00:58:07.602Z,27.42
2023-04-10T00:59:07.741Z,27.43
2023-04-10T01:00:07.789Z,27.39
2023-04-10T01:01:07.812Z,27.44
2023-04-10T01:02:07.929Z,27.43
2023-04-10T01:03:08.135Z,27.42
2023-04-10T01:04:08.136Z,27.42
2023-04-10T01:05:08.040Z,27.47
2023-04-10T01:06:08.137Z,27.44
2023-04-10T01:07:08.250Z,27.42
2023-04-10T01:08:08.259Z,27.43
2023-04-10T01:09:08.281Z,27.44
2023-04-10T01:10:08.271Z,27.44
2023-04-10T01:11:08.301Z,27.42
2023-04-10T01:12:08.395Z,27.46
2023-04-10T01:13:08.469Z,27.44
2023-04-10T01:14:08.508Z,27.47
2023-04-10T01:15:08.543Z,27.47
2023-04-10T01:16:08.594Z,27.44
2023-04-10T01:17:08.791Z,27.45
2023-04-10T01:18:08.857Z,27.44
2023-04-10T01:19:08.761Z,27.44
2023-04-10T01:20:08.847Z,27.47
2023-04-10T01:21:08.891Z,27.45
2023-04-10T01:22:08.963Z,27.44
2023-04-10T01:23:09.010Z,27.45
2023-04-10T01:24:09.068Z,27.47
2023-04-10T01:25:09.093Z,27.41
2023-04-10T01:26:09.307Z,27.42
2023-04-10T01:27:09.236Z,27.47
2023-04-10T01:28:09.317Z,27.45
2023-04-10T01:29:09.323Z,27.48
2023-04-10T01:30:09.319Z,27.45
2023-04-10T01:31:09.489Z,27.44
2023-04-10T01:32:09.438Z,27.45
2023-04-10T01:33:09.564Z,27.41
2023-04-10T01:34:09.670Z,27.48
2023-04-10T01:35:09.670Z,27.45
2023-04-10T01:36:09.695Z,27.44
2023-04-10T01:37:09.733Z,27.48
2023-04-10T01:38:09.788Z,27.48
2023-04-10T01:39:09.887Z,27.46
2023-04-10T01:40:09.907Z,27.50
2023-04-10T01:41:09.978Z,27.51
2023-04-10T01:42:10.024Z,27.52
2023-04-10T01:43:10.026Z,27.46
2023-04-10T01:44:10.060Z,27.48
2023-04-10T01:45:10.131Z,27.48
2023-04-10T01:46:10.199Z,27.49
2023-04-10T01:47:11.082Z,27.49
2023-04-10T01:48:10.277Z,27.46
2023-04-10T01:49:10.379Z,27.49
2023-04-10T01:50:10.544Z,27.48
2023-04-10T01:51:10.498Z,27.48
2023-04-10T01:52:10.501Z,27.49
2023-04-10T01:53:10.619Z,27.49
2023-04-10T01:54:10.615Z,27.49
2023-04-10T01:55:10.630Z,27.49
2023-04-10T01:56:10.738Z,27.48
2023-04-10T01:57:10.842Z,27.48
2023-04-10T01:58:10.855Z,27.52
2023-04-10T01:59:10.883Z,27.46
2023-04-10T02:00:10.941Z,27.53
2023-04-10T02:01:22.381Z,27.47
2023-04-10T02:02:12.092Z,27.50
2023-04-10T02:03:11.266Z,27.52
2023-04-10T02:04:11.048Z,27.52
2023-04-10T02:05:11.015Z,27.53
2023-04-10T02:06:10.955Z,27.55
2023-04-10T02:07:10.944Z,27.55
2023-04-10T02:08:11.016Z,27.49
2023-04-10T02:09:10.972Z,27.46
2023-04-10T02:10:10.989Z,27.52
2023-04-10T02:11:11.036Z,27.47
2023-04-10T02:12:11.146Z,27.53
2023-04-10T02:13:11.146Z,27.52
2023-04-10T02:14:11.230Z,27.52
2023-04-10T02:15:11.263Z,27.53
2023-04-10T02:16:11.411Z,27.53
2023-04-10T02:17:11.405Z,27.52
2023-04-10T02:18:11.432Z,27.52
2023-04-10T02:19:11.614Z,27.55
2023-04-10T02:20:11.588Z,27.49
2023-04-10T02:21:11.732Z,27.53
2023-04-10T02:22:11.740Z,27.53
2023-04-10T02:23:11.800Z,27.53
2023-04-10T02:24:11.848Z,27.53
2023-04-10T02:25:11.900Z,27.56
2023-04-10T02:26:11.960Z,27.54
2023-04-10T02:27:12.030Z,27.52
2023-04-10T02:28:12.072Z,27.56
2023-04-10T02:29:12.084Z,27.56
2023-04-10T02:30:12.285Z,27.56
2023-04-10T02:31:12.309Z,27.51
2023-04-10T02:32:12.313Z,27.56
2023-04-10T02:33:12.435Z,27.57
2023-04-10T02:34:12.452Z,27.55
2023-04-10T02:35:12.538Z,27.56
2023-04-10T02:36:12.657Z,27.58
2023-04-10T02:37:12.605Z,27.54
2023-04-10T02:38:12.883Z,27.54
2023-04-10T02:39:12.773Z,27.55
2023-04-10T02:40:12.878Z,27.57
2023-04-10T02:41:12.883Z,27.56
2023-04-10T02:42:12.947Z,27.60
2023-04-10T02:43:13.105Z,27.58
2023-04-10T02:44:13.064Z,27.57
2023-04-10T02:45:13.110Z,27.55
2023-04-10T02:46:13.295Z,27.58
2023-04-10T02:47:13.234Z,27.60
2023-04-10T02:48:13.265Z,27.55
2023-04-10T02:49:13.332Z,27.55
2023-04-10T02:50:13.418Z,27.58
2023-04-10T02:51:13.558Z,27.60
2023-04-10T02:52:13.525Z,27.57
2023-04-10T02:53:13.576Z,27.57
2023-04-10T02:54:13.713Z,27.58
2023-04-10T02:55:13.705Z,27.60
2023-04-10T02:56:13.853Z,27.60
2023-04-10T02:57:13.822Z,27.61
2023-04-10T02:58:15.181Z,27.60
2023-04-10T02:59:13.917Z,27.55
2023-04-10T03:00:14.036Z,27.58
2023-04-10T03:01:14.161Z,27.57
2023-04-10T03:02:14.380Z,27.58
2023-04-10T03:03:14.270Z,27.62
2023-04-10T03:04:14.348Z,27.56
2023-04-10T03:05:14.306Z,27.61
2023-04-10T03:06:14.310Z,27.58
2023-04-10T03:07:14.339Z,27.60
2023-04-10T03:08:14.428Z,27.61
2023-04-10T03:09:14.512Z,27.56
2023-04-10T03:10:14.569Z,27.64
2023-04-10T03:11:14.703Z,27.62
2023-04-10T03:12:14.678Z,27.54
2023-04-10T03:13:14.731Z,27.59
2023-04-10T03:14:14.742Z,27.55
2023-04-10T03:15:14.911Z,27.62
2023-04-10T03:16:15.029Z,27.61
2023-04-10T03:17:14.910Z,27.62
2023-04-10T03:18:15.045Z,27.64
2023-04-10T03:19:15.022Z,27.64
2023-04-10T03:20:15.104Z,27.56
2023-04-10T03:21:15.159Z,27.60
2023-04-10T03:22:15.159Z,27.66
2023-04-10T03:23:15.317Z,27.63
2023-04-10T03:24:16.420Z,27.62
2023-04-10T03:25:15.344Z,27.64
2023-04-10T03:26:15.393Z,27.65
2023-04-10T03:27:15.526Z,27.65
2023-04-10T03:28:15.556Z,27.63
2023-04-10T03:29:15.530Z,27.65
2023-04-10T03:30:15.572Z,27.60
2023-04-10T03:31:15.588Z,27.65
2023-04-10T03:32:15.582Z,27.62
2023-04-10T03:33:15.619Z,27.69
2023-04-10T03:34:15.601Z,27.65
2023-04-10T03:35:15.615Z,27.70
2023-04-10T03:36:15.657Z,27.62
2023-04-10T03:37:15.702Z,27.68
2023-04-10T03:38:15.671Z,27.65
2023-04-10T03:39:15.679Z,27.63
2023-04-10T03:40:15.747Z,27.65
2023-04-10T03:41:15.740Z,27.64
2023-04-10T03:42:15.823Z,27.68
2023-04-10T03:43:15.821Z,27.64
2023-04-10T03:44:15.868Z,27.69
2023-04-10T03:45:15.874Z,27.64
2023-04-10T03:46:16.007Z,27.69
2023-04-10T03:47:16.119Z,27.64
2023-04-10T03:48:16.001Z,27.68
2023-04-10T03:49:16.010Z,27.68
2023-04-10T03:50:16.077Z,27.67
2023-04-10T03:51:16.233Z,27.69
2023-04-10T03:52:16.077Z,27.67
2023-04-10T03:53:16.131Z,27.66
2023-04-10T03:54:16.150Z,27.67
2023-04-10T03:55:16.154Z,27.66
2023-04-10T03:56:16.161Z,27.67
2023-04-10T03:57:16.162Z,27.70
2023-04-10T03:58:16.251Z,27.67
2023-04-10T03:59:16.235Z,27.66
2023-04-10T04:00:16.238Z,27.69
2023-04-10T04:01:16.259Z,27.66
2023-04-10T04:02:16.364Z,27.70
2023-04-10T04:03:16.381Z,27.69
2023-04-10T04:04:16.376Z,27.67
2023-04-10T04:05:16.269Z,27.73
2023-04-10T04:06:16.279Z,27.66
2023-04-10T04:07:16.275Z,27.68
2023-04-10T04:08:16.289Z,27.63
2023-04-10T04:09:16.344Z,27.60
2023-04-10T04:10:16.364Z,27.57
2023-04-10T04:11:16.378Z,27.51
2023-04-10T04:12:16.422Z,27.44
2023-04-10T04:13:16.440Z,27.43
2023-04-10T04:14:16.447Z,27.43
2023-04-10T04:15:16.440Z,27.37
2023-04-10T04:16:16.552Z,27.40
2023-04-10T04:17:16.498Z,27.41
2023-04-10T04:18:16.519Z,27.40
2023-04-10T04:19:16.530Z,27.39
2023-04-10T04:20:16.527Z,27.34
2023-04-10T04:21:16.543Z,27.37
2023-04-10T04:22:16.594Z,27.30
2023-04-10T04:23:16.597Z,27.30
2023-04-10T04:24:16.600Z,27.27
2023-04-10T04:25:16.667Z,27.22
2023-04-10T04:26:16.608Z,27.22
2023-04-10T04:27:16.670Z,27.25
2023-04-10T04:28:16.678Z,27.28
2023-04-10T04:29:16.738Z,27.21
2023-04-10T04:30:16.755Z,27.21
2023-04-10T04:31:16.754Z,27.20
2023-04-10T04:32:16.818Z,27.14
2023-04-10T04:33:16.763Z,27.14
2023-04-10T04:34:16.842Z,27.11
2023-04-10T04:35:16.882Z,27.15
2023-04-10T04:36:16.890Z,27.22
2023-04-10T04:37:16.995Z,27.24
2023-04-10T04:38:16.923Z,27.27
2023-04-10T04:39:16.968Z,27.27
2023-04-10T04:40:16.914Z,27.28
2023-04-10T04:41:18.225Z,27.31
2023-04-10T04:42:16.973Z,27.35
2023-04-10T04:43:17.010Z,27.32
2023-04-10T04:44:17.010Z,27.32
2023-04-10T04:45:16.954Z,27.28
2023-04-10T04:46:16.978Z,27.37
2023-04-10T04:47:17.021Z,27.35
2023-04-10T04:48:16.929Z,27.35
2023-04-10T04:49:16.927Z,27.37
2023-04-10T04:50:16.928Z,27.35
2023-04-10T04:51:16.886Z,27.35
2023-04-10T04:52:16.915Z,27.41
2023-04-10T04:53:16.904Z,27.37
2023-04-10T04:54:16.882Z,27.36
2023-04-10T04:55:16.875Z,27.41
2023-04-10T04:56:16.871Z,27.38
2023-04-10T04:57:16.878Z,27.33
2023-04-10T04:58:16.851Z,27.37
2023-04-10T04:59:16.838Z,27.32
2023-04-10T05:00:16.856Z,27.34
2023-04-10T05:01:16.842Z,27.32
2023-04-10T05:02:16.907Z,27.37
2023-04-10T05:03:16.939Z,27.37
2023-04-10T05:04:16.974Z,27.39
2023-04-10T05:05:16.782Z,27.39
2023-04-10T05:06:16.780Z,27.34
2023-04-10T05:07:17.097Z,27.37
2023-04-10T05:08:16.801Z,27.38
2023-04-10T05:09:16.756Z,27.38
2023-04-10T05:10:16.770Z,27.38
2023-04-10T05:11:16.729Z,27.39
2023-04-10T05:12:16.781Z,27.37
2023-04-10T05:13:16.893Z,27.39
2023-04-10T05:14:16.731Z,27.42
2023-04-10T05:15:16.689Z,27.38
2023-04-10T05:16:16.844Z,27.41
2023-04-10T05:17:16.689Z,27.41
2023-04-10T05:18:16.756Z,27.43
2023-04-10T05:19:16.726Z,27.41
2023-04-10T05:20:16.733Z,27.36
2023-04-10T05:21:16.678Z,27.32
2023-04-10T05:22:18.542Z,27.41
2023-04-10T05:23:16.715Z,27.40
2023-04-10T05:24:16.662Z,27.39
2023-04-10T05:25:16.653Z,27.38
2023-04-10T05:26:16.669Z,27.41
2023-04-10T05:27:16.613Z,27.41
2023-04-10T05:28:16.621Z,27.40
2023-04-10T05:29:16.632Z,27.38
2023-04-10T05:30:16.638Z,27.40
2023-04-10T05:31:16.681Z,27.38
2023-04-10T05:32:16.674Z,27.33
2023-04-10T05:33:16.603Z,27.41
2023-04-10T05:34:16.554Z,27.41
2023-04-10T05:35:16.560Z,27.41
2023-04-10T05:36:16.615Z,27.40
2023-04-10T05:37:16.583Z,27.38
2023-04-10T05:38:16.553Z,27.40
2023-04-10T05:39:16.555Z,27.37
2023-04-10T05:40:16.573Z,27.38
2023-04-10T05:41:16.586Z,27.38
2023-04-10T05:42:16.512Z,27.36
2023-04-10T05:43:16.525Z,27.38
2023-04-10T05:44:16.543Z,27.36
2023-04-10T05:45:16.537Z,27.38
2023-04-10T05:46:16.573Z,27.40
2023-04-10T05:47:16.509Z,27.40
2023-04-10T05:48:16.519Z,27.40
2023-04-10T05:49:16.511Z,27.40
2023-04-10T05:50:16.589Z,27.43
2023-04-10T05:51:16.589Z,27.40
2023-04-10T05:52:16.582Z,27.41
2023-04-10T05:53:16.654Z,27.42
2023-04-10T05:54:16.654Z,27.40
2023-04-10T05:55:16.710Z,27.39
2023-04-10T05:56:16.723Z,27.41
2023-04-10T05:57:16.778Z,27.43
2023-04-10T05:58:16.857Z,27.43
2023-04-10T05:59:16.893Z,27.44
2023-04-10T06:00:16.893Z,27.42
2023-04-10T06:01:16.960Z,27.43
2023-04-10T06:02:17.108Z,27.43
2023-04-10T06:03:17.023Z,27.44
2023-04-10T06:04:17.202Z,27.43
2023-04-10T06:05:17.093Z,27.40
2023-04-10T06:06:17.150Z,27.43
2023-04-10T06:07:17.187Z,27.40
2023-04-10T06:08:17.312Z,27.44
2023-04-10T06:09:17.473Z,27.43
2023-04-10T06:10:17.537Z,27.42
2023-04-10T06:11:17.638Z,27.39
2023-04-10T06:12:17.733Z,27.44
2023-04-10T06:13:17.853Z,27.46
2023-04-10T06:14:17.951Z,27.47
2023-04-10T06:15:18.072Z,27.44
2023-04-10T06:16:18.188Z,27.44
2023-04-10T06:17:18.216Z,27.44
2023-04-10T06:18:18.314Z,27.43
2023-04-10T06:19:18.394Z,27.46
2023-04-10T06:20:18.567Z,27.44
2023-04-10T06:21:18.627Z,27.43
2023-04-10T06:22:18.694Z,27.47
2023-04-10T06:23:18.794Z,27.42
2023-04-10T06:24:18.905Z,27.44
2023-04-10T06:25:18.975Z,27.43
2023-04-10T06:26:19.135Z,27.42
2023-04-10T06:27:19.223Z,27.44
2023-04-10T06:28:19.459Z,27.47
2023-04-10T06:29:19.449Z,27.46
2023-04-10T06:30:19.508Z,27.44
2023-04-10T06:31:19.760Z,27.44
2023-04-10T06:32:19.814Z,27.46
2023-04-10T06:33:19.929Z,27.40
2023-04-10T06:34:19.994Z,27.46
2023-04-10T06:35:20.156Z,27.42
2023-04-10T06:36:20.269Z,27.43
2023-04-10T06:37:20.366Z,27.49
2023-04-10T06:38:20.553Z,27.49
2023-04-10T06:39:20.585Z,27.43
2023-04-10T06:40:20.673Z,27.44
2023-04-10T06:41:20.804Z,27.48
2023-04-10T06:42:20.976Z,27.46
2023-04-10T06:43:21.086Z,27.46
2023-04-10T06:44:21.168Z,27.47
2023-04-10T06:45:21.320Z,27.44
2023-04-10T06:46:21.481Z,27.43
2023-04-10T06:47:21.583Z,27.46
2023-04-10T06:48:21.669Z,27.48
2023-04-10T06:49:21.792Z,27.46
2023-04-10T06:50:21.909Z,27.43
2023-04-10T06:51:21.999Z,27.49
2023-04-10T06:52:22.177Z,27.49
2023-04-10T06:53:22.189Z,27.47
2023-04-10T06:54:22.598Z,27.44
2023-04-10T06:55:22.555Z,27.49
2023-04-10T06:56:22.616Z,27.46
2023-04-10T06:57:22.710Z,27.48
2023-04-10T06:58:23.069Z,27.46
2023-04-10T06:59:22.888Z,27.43
2023-04-10T07:00:22.947Z,27.46
2023-04-10T07:01:24.058Z,27.48
2023-04-10T07:02:23.184Z,27.48
2023-04-10T07:03:23.200Z,27.46
2023-04-10T07:04:23.206Z,27.46
2023-04-10T07:05:23.276Z,27.48
2023-04-10T07:06:23.332Z,27.45
2023-04-10T07:07:23.401Z,27.51
2023-04-10T07:08:23.454Z,27.46
2023-04-10T07:09:23.456Z,27.44
2023-04-10T07:10:23.516Z,27.49
2023-04-10T07:11:23.569Z,27.45
2023-04-10T07:12:23.663Z,27.48
2023-04-10T07:13:23.694Z,27.48
2023-04-10T07:14:23.991Z,27.46
2023-04-10T07:15:23.815Z,27.49
2023-04-10T07:16:23.933Z,27.44
2023-04-10T07:17:23.928Z,27.45
2023-04-10T07:18:23.996Z,27.44
2023-04-10T07:19:24.053Z,27.45
2023-04-10T07:20:24.038Z,27.45
2023-04-10T07:21:24.225Z,27.46
2023-04-10T07:22:24.217Z,27.45
2023-04-10T07:23:24.266Z,27.45
2023-04-10T07:24:24.355Z,27.45
2023-04-10T07:25:24.399Z,27.46
2023-04-10T07:26:24.397Z,27.47
2023-04-10T07:27:24.506Z,27.48
2023-04-10T07:28:24.570Z,27.46
2023-04-10T07:29:24.623Z,27.48
2023-04-10T07:30:24.693Z,27.45
2023-04-10T07:31:24.831Z,27.47
2023-04-10T07:32:25.045Z,27.45
2023-04-10T07:33:24.865Z,27.47
2023-04-10T07:34:24.911Z,27.45
2023-04-10T07:35:25.035Z,27.45
2023-04-10T07:36:25.076Z,27.45
2023-04-10T07:37:25.146Z,27.49
2023-04-10T07:38:25.177Z,27.48
2023-04-10T07:39:25.254Z,27.45
2023-04-10T07:40:25.364Z,27.48
2023-04-10T07:41:25.388Z,27.45
2023-04-10T07:42:25.426Z,27.47
2023-04-10T07:43:25.494Z,27.44
2023-04-10T07:44:25.550Z,27.42
2023-04-10T07:45:25.676Z,27.53
2023-04-10T07:46:25.661Z,27.45
2023-04-10T07:47:25.741Z,27.45
2023-04-10T07:48:25.764Z,27.47
2023-04-10T07:49:25.850Z,27.51
2023-04-10T07:50:25.937Z,27.42
2023-04-10T07:51:25.952Z,27.45
2023-04-10T07:52:25.996Z,27.45
2023-04-10T07:53:26.076Z,27.45
2023-04-10T07:54:26.189Z,27.44
2023-04-10T07:55:26.186Z,27.44
2023-04-10T07:56:26.231Z,27.44
2023-04-10T07:57:26.345Z,27.44
2023-04-10T07:58:26.418Z,27.45
2023-04-10T07:59:26.450Z,27.44
2023-04-10T08:00:26.530Z,27.42
2023-04-10T08:01:26.530Z,27.43
2023-04-10T08:02:26.735Z,27.44
2023-04-10T08:03:26.864Z,27.41
2023-04-10T08:04:26.867Z,27.47
2023-04-10T08:05:26.864Z,27.41
2023-04-10T08:06:26.813Z,27.43
2023-04-10T08:07:26.896Z,27.44
2023-04-10T08:08:26.933Z,27.47
2023-04-10T08:09:26.932Z,27.43
2023-04-10T08:10:27.015Z,27.46
2023-04-10T08:11:27.062Z,27.43
2023-04-10T08:12:27.124Z,27.45
2023-04-10T08:13:27.180Z,27.44
2023-04-10T08:14:27.251Z,27.43
2023-04-10T08:15:27.262Z,27.46
2023-04-10T08:16:27.408Z,27.41
2023-04-10T08:17:27.390Z,27.46
2023-04-10T08:18:27.407Z,27.43
2023-04-10T08:19:27.477Z,27.46
2023-04-10T08:20:27.493Z,27.47
2023-04-10T08:21:27.645Z,27.49
2023-04-10T08:22:27.598Z,27.47
2023-04-10T08:23:27.656Z,27.44
2023-04-10T08:24:27.711Z,27.44
2023-04-10T08:25:27.765Z,27.42
2023-04-10T08:26:27.832Z,27.46
2023-04-10T08:27:27.873Z,27.46
2023-04-10T08:28:27.947Z,27.46
2023-04-10T08:29:28.000Z,27.43
2023-04-10T08:30:28.082Z,27.43
2023-04-10T08:31:28.416Z,27.44
2023-04-10T08:32:28.161Z,27.44
2023-04-10T08:33:28.199Z,27.49
2023-04-10T08:34:28.276Z,27.49
2023-04-10T08:35:28.309Z,27.46
2023-04-10T08:36:28.368Z,27.43
2023-04-10T08:37:28.369Z,27.44
2023-04-10T08:38:28.421Z,27.43
2023-04-10T08:39:28.541Z,27.47
2023-04-10T08:40:28.546Z,27.42
2023-04-10T08:41:28.597Z,27.46
2023-04-10T08:42:28.651Z,27.47
2023-04-10T08:43:28.720Z,27.43
2023-04-10T08:44:28.787Z,27.43
2023-04-10T08:45:28.819Z,27.43
2023-04-10T08:46:28.947Z,27.46
2023-04-10T08:47:28.985Z,27.45
2023-04-10T08:48:29.005Z,27.43
2023-04-10T08:49:29.063Z,27.46
2023-04-10T08:50:29.126Z,27.43
2023-04-10T08:51:29.172Z,27.40
2023-04-10T08:52:29.254Z,27.42
2023-04-10T08:53:29.247Z,27.40
2023-04-10T08:54:29.316Z,27.45
2023-04-10T08:55:29.425Z,27.46
2023-04-10T08:56:29.456Z,27.43
2023-04-10T08:57:29.547Z,27.46
2023-04-10T08:58:29.594Z,27.42
2023-04-10T08:59:29.644Z,27.41
2023-04-10T09:00:30.216Z,27.44
2023-04-10T09:01:29.781Z,27.42
2023-04-10T09:02:30.064Z,27.42
2023-04-10T09:03:30.131Z,27.44
2023-04-10T09:04:30.113Z,27.43
2023-04-10T09:05:29.983Z,27.45
2023-04-10T09:06:30.060Z,27.45
2023-04-10T09:07:30.105Z,27.44
2023-04-10T09:08:30.138Z,27.41
2023-04-10T09:09:30.223Z,27.42
2023-04-10T09:10:30.313Z,27.42
2023-04-10T09:11:30.421Z,27.42
2023-04-10T09:12:30.430Z,27.39
2023-04-10T09:13:30.502Z,27.42
2023-04-10T09:14:30.570Z,27.44
2023-04-10T09:15:30.635Z,27.44
2023-04-10T09:16:30.711Z,27.44
2023-04-10T09:17:30.762Z,27.39
2023-04-10T09:18:30.856Z,27.38
2023-04-10T09:19:30.868Z,27.47
2023-04-10T09:20:30.935Z,27.41
2023-04-10T09:21:30.969Z,27.41
2023-04-10T09:22:31.117Z,27.38
2023-04-10T09:23:31.682Z,27.41
2023-04-10T09:24:31.224Z,27.40
2023-04-10T09:25:31.318Z,27.41
2023-04-10T09:26:31.340Z,27.41
2023-04-10T09:27:31.406Z,27.38
2023-04-10T09:28:31.496Z,27.40
2023-04-10T09:29:31.461Z,27.38
2023-04-10T09:30:31.551Z,27.35
2023-04-10T09:31:31.705Z,27.38
2023-04-10T09:32:31.790Z,27.35
2023-04-10T09:33:31.744Z,27.38
2023-04-10T09:34:31.808Z,27.43
2023-04-10T09:35:31.891Z,27.40
2023-04-10T09:36:31.898Z,27.44
2023-04-10T09:37:32.003Z,27.37
2023-04-10T09:38:32.063Z,27.40
2023-04-10T09:39:32.046Z,27.40
2023-04-10T09:40:32.151Z,27.41
2023-04-10T09:41:32.231Z,27.38
2023-04-10T09:42:32.286Z,27.43
2023-04-10T09:43:32.357Z,27.40
2023-04-10T09:44:32.352Z,27.37
2023-04-10T09:45:32.495Z,27.38
2023-04-10T09:46:32.490Z,27.40
2023-04-10T09:47:32.602Z,27.36
2023-04-10T09:48:32.626Z,27.37
2023-04-10T09:49:32.716Z,27.40
2023-04-10T09:50:36.471Z,27.37
2023-04-10T09:51:33.761Z,27.40
2023-04-10T09:52:32.749Z,27.39
2023-04-10T09:53:32.703Z,27.37
2023-04-10T09:54:32.857Z,27.46
2023-04-10T09:55:32.686Z,27.39
2023-04-10T09:56:32.670Z,27.37
2023-04-10T09:57:32.680Z,27.47
2023-04-10T09:58:32.698Z,27.38
2023-04-10T09:59:32.642Z,27.37
2023-04-10T10:00:32.696Z,27.38
2023-04-10T10:01:32.830Z,27.39
2023-04-10T10:02:32.804Z,27.32
2023-04-10T10:03:32.984Z,27.40
2023-04-10T10:04:32.942Z,27.43
2023-04-10T10:05:32.919Z,27.37
2023-04-10T10:06:32.969Z,27.39
2023-04-10T10:07:33.030Z,27.39
2023-04-10T10:08:33.085Z,27.38
2023-04-10T10:09:33.148Z,27.42
2023-04-10T10:10:33.166Z,27.36
2023-04-10T10:11:33.284Z,27.36
2023-04-10T10:12:33.300Z,27.41
2023-04-10T10:13:33.504Z,27.35
2023-04-10T10:14:33.394Z,27.35
2023-04-10T10:15:33.409Z,27.36
2023-04-10T10:16:33.523Z,27.39
2023-04-10T10:17:33.653Z,27.36
2023-04-10T10:18:33.651Z,27.34
2023-04-10T10:19:33.650Z,27.35
2023-04-10T10:20:35.424Z,27.38
2023-04-10T10:21:33.711Z,27.34
2023-04-10T10:22:33.668Z,27.38
2023-04-10T10:23:33.677Z,27.32
2023-04-10T10:24:33.610Z,27.31
2023-04-10T10:25:33.656Z,27.35
2023-04-10T10:26:33.685Z,27.31
2023-04-10T10:27:33.700Z,27.32
2023-04-10T10:28:33.659Z,27.32
2023-04-10T10:29:34.163Z,27.31
2023-04-10T10:30:33.620Z,27.34
2023-04-10T10:31:33.789Z,27.31
2023-04-10T10:32:33.663Z,27.38
2023-04-10T10:33:33.642Z,27.37
2023-04-10T10:34:33.576Z,27.28
2023-04-10T10:35:33.557Z,27.40
2023-04-10T10:36:33.621Z,27.36
2023-04-10T10:37:33.573Z,27.34
2023-04-10T10:38:33.501Z,27.34
2023-04-10T10:39:33.694Z,27.30
2023-04-10T10:40:33.577Z,27.31
2023-04-10T10:41:33.522Z,27.31
2023-04-10T10:42:33.540Z,27.31
2023-04-10T10:43:33.511Z,27.31
2023-04-10T10:44:33.522Z,27.30
2023-04-10T10:45:33.526Z,27.30
2023-04-10T10:46:33.463Z,27.33
2023-04-10T10:47:33.568Z,27.34
2023-04-10T10:48:33.474Z,27.31
2023-04-10T10:49:33.471Z,27.33
2023-04-10T10:50:33.567Z,27.34
2023-04-10T10:51:33.458Z,27.33
2023-04-10T10:52:33.579Z,27.28
2023-04-10T10:53:33.470Z,27.31
2023-04-10T10:54:33.479Z,27.39
2023-04-10T10:55:33.473Z,27.34
2023-04-10T10:56:33.440Z,27.36
2023-04-10T10:57:33.413Z,27.33
2023-04-10T10:58:33.398Z,27.35
2023-04-10T10:59:33.420Z,27.36
2023-04-10T11:00:33.375Z,27.33
2023-04-10T11:01:33.594Z,27.33
2023-04-10T11:02:33.483Z,27.34
2023-04-10T11:03:33.496Z,27.30
2023-04-10T11:04:33.335Z,27.31
2023-04-10T11:05:33.353Z,27.33
2023-04-10T11:06:33.348Z,27.27
2023-04-10T11:07:33.428Z,27.28
2023-04-10T11:08:33.671Z,27.31
2023-04-10T11:09:33.482Z,27.30
2023-04-10T11:10:35.142Z,27.33
2023-04-10T11:11:33.597Z,27.32
2023-04-10T11:12:33.603Z,27.36
2023-04-10T11:13:33.633Z,27.31
2023-04-10T11:14:33.651Z,27.28
2023-04-10T11:15:33.724Z,27.31
2023-04-10T11:16:33.762Z,27.32
2023-04-10T11:17:33.850Z,27.31
2023-04-10T11:18:33.781Z,27.35
2023-04-10T11:19:33.859Z,27.33
2023-04-10T11:20:33.933Z,27.30
2023-04-10T11:21:33.930Z,27.32
2023-04-10T11:22:34.011Z,27.41
2023-04-10T11:23:34.049Z,27.38
2023-04-10T11:24:34.057Z,27.35
2023-04-10T11:25:34.206Z,27.33
2023-04-10T11:26:34.119Z,27.35
2023-04-10T11:27:34.167Z,27.32
2023-04-10T11:28:34.185Z,27.35
2023-04-10T11:29:34.357Z,27.35
2023-04-10T11:30:34.358Z,27.33
2023-04-10T11:31:34.381Z,27.38
2023-04-10T11:32:34.322Z,27.41
2023-04-10T11:33:34.356Z,27.35
2023-04-10T11:34:34.463Z,27.37
2023-04-10T11:35:34.514Z,27.29
2023-04-10T11:36:34.480Z,27.41
2023-04-10T11:37:34.497Z,27.38
2023-04-10T11:38:34.564Z,27.33
2023-04-10T11:39:34.701Z,27.42
2023-04-10T11:40:34.608Z,27.38
2023-04-10T11:41:34.613Z,27.39
2023-04-10T11:42:34.679Z,27.41
2023-04-10T11:43:34.726Z,27.37
2023-04-10T11:44:34.749Z,27.38
2023-04-10T11:45:34.897Z,27.39
2023-04-10T11:46:34.823Z,27.35
2023-04-10T11:47:34.839Z,27.35
2023-04-10T11:48:34.877Z,27.38
2023-04-10T11:49:34.991Z,27.38
2023-04-10T11:50:34.956Z,27.41
2023-04-10T11:51:34.918Z,27.41
2023-04-10T11:52:34.998Z,27.45
2023-04-10T11:53:35.062Z,27.44
2023-04-10T11:54:35.038Z,27.41
2023-04-10T11:55:35.113Z,27.41
2023-04-10T11:56:35.160Z,27.40
2023-04-10T11:57:35.127Z,27.37
2023-04-10T11:58:35.203Z,27.38
2023-04-10T11:59:35.225Z,27.41
2023-04-10T12:00:35.224Z,27.40
2023-04-10T12:01:35.330Z,27.44
2023-04-10T12:02:35.603Z,27.42
2023-04-10T12:03:35.470Z,27.44
2023-04-10T12:04:35.529Z,27.41
2023-04-10T12:05:35.410Z,27.38
2023-04-10T12:06:35.397Z,27.41
2023-04-10T12:07:35.501Z,27.27
2023-04-10T12:08:35.458Z,27.27
2023-04-10T12:09:35.526Z,27.26
2023-04-10T12:10:35.526Z,27.30
2023-04-10T12:11:35.605Z,27.34
2023-04-10T12:12:35.587Z,27.27
2023-04-10T12:13:35.582Z,27.17
2023-04-10T12:14:35.655Z,27.16
2023-04-10T12:15:35.749Z,27.29
2023-04-10T12:16:35.684Z,27.24
2023-04-10T12:17:35.744Z,27.17
2023-04-10T12:18:35.796Z,27.17
2023-04-10T12:19:35.801Z,27.16
2023-04-10T12:20:35.801Z,27.04
2023-04-10T12:21:35.874Z,27.07
2023-04-10T12:22:35.911Z,27.03
2023-04-10T12:23:35.929Z,27.03
2023-04-10T12:24:35.946Z,27.02
2023-04-10T12:25:36.208Z,26.96
2023-04-10T12:26:35.941Z,26.92
2023-04-10T12:27:36.051Z,26.91
2023-04-10T12:28:36.027Z,26.99
2023-04-10T12:29:36.069Z,26.91
2023-04-10T12:30:36.087Z,26.92
2023-04-10T12:31:36.126Z,26.93
2023-04-10T12:32:36.190Z,26.93
2023-04-10T12:33:36.201Z,26.90
2023-04-10T12:34:36.217Z,26.96
2023-04-10T12:35:36.246Z,26.92
2023-04-10T12:36:36.235Z,26.90
2023-04-10T12:37:36.238Z,26.88
2023-04-10T12:38:36.250Z,26.89
2023-04-10T12:39:36.239Z,26.83
2023-04-10T12:40:36.274Z,26.86
2023-04-10T12:41:36.298Z,26.89
2023-04-10T12:42:36.383Z,26.88
2023-04-10T12:43:36.334Z,26.84
2023-04-10T12:44:36.376Z,26.82
2023-04-10T12:45:36.389Z,26.78
2023-04-10T12:46:36.423Z,26.82
2023-04-10T12:47:36.431Z,26.71
2023-04-10T12:48:36.401Z,26.78
2023-04-10T12:49:36.517Z,26.71
2023-04-10T12:50:36.659Z,26.71
2023-04-10T12:51:36.840Z,26.69
2023-04-10T12:52:36.747Z,26.69